Artesia, New Mexico
Current Conditions -  °F | °C
As of 9:09 AM on Tuesday 21 Oct 2014 (Local Time) from KROW Reporting Station
Overcast Overcast  
Wind Chill: 16°   Ceiling: 1900
Heat Index: 16°   Visibility: 10mi
Dew Point: 14°   Wind: 6mph
Humidity: 90%   Direction: 20°NNE
Pressure: 30.13"   Gusts: NA
Location:  32.84°N, 104.39°W
Report Text: KROW 211509Z 02005KT 10SM BKN019 BKN070 OVC100 16/14 A3013 RMK AO2 T01560139
Loading
Personal Weather Stations






























Interactive Weather Map New forecast layout! Learn more

10-Day Weather Forecast

Advertisements
Track Severe Weather on mobile